Delburne, Canada
Current Conditions -  °F | °C
As of 7:00 AM on Monday 20 Oct 2014 (Local Time) from CYQF Reporting Station
Clear Clear  
Wind Chill: 29°   Ceiling: Unl
Heat Index: 34°   Visibility: 15mi
Dew Point: 28°   Wind: 6mph
Humidity: 81%   Direction: 200°SSW
Pressure: 29.64"   Gusts: NA
Location:  52.2°N, 113.23°W
Report Text: CYQF 201300Z 20005KT 15SM SKC 01/M02 A2964 RMK SLP058
Loading
Personal Weather Stations






























Interactive Weather Map
Tropical Storm Tracking
New forecast layout! Learn more

10-Day Weather Forecast

Advertisements
Track Severe Weather on mobile